ITY37P KSFO-KSAN
Flight info
| Callsign | ITY37P |
|---|---|
| Flight time | 1h 6m |
| Altitude | 37000 |
| Route | WESLA5 YYUNG LAX COMIX2 |
| Aircraft | A320/M-SDE3FGHIRWY/LB1 |
Departure
| Time | 2026-05-07 19:35 |
|---|---|
| Airport | San Francisco International Airport (KSFO) |
Arrival
| Time | 2026-05-07 20:41 |
|---|---|
| Airport | San Diego International Airport (KSAN) |
| Time | Latitude | Longitude | Altitude | Speed | Heading |
|---|---|---|---|---|---|
| 2026-05-07 19:00 | 37.61806 | -122.38417 | 21 ft | 0 kts | 285° |
| 2026-05-07 19:25 | 37.61803 | -122.38405 | 21 ft | 1 kts | 272° |
| 2026-05-07 19:25 | 37.61805 | -122.38390 | 22 ft | 2 kts | 272° |
| 2026-05-07 19:25 | 37.61806 | -122.38375 | 23 ft | 2 kts | 254° |
| 2026-05-07 19:26 | 37.61814 | -122.38354 | 25 ft | 3 kts | 239° |
| 2026-05-07 19:26 | 37.61827 | -122.38331 | 24 ft | 3 kts | 223° |
| 2026-05-07 19:26 | 37.61847 | -122.38310 | 24 ft | 4 kts | 215° |
| 2026-05-07 19:26 | 37.61869 | -122.38293 | 22 ft | 4 kts | 207° |
| 2026-05-07 19:27 | 37.61893 | -122.38279 | 24 ft | 4 kts | 201° |
| 2026-05-07 19:27 | 37.61918 | -122.38269 | 22 ft | 4 kts | 195° |
| 2026-05-07 19:27 | 37.61941 | -122.38262 | 23 ft | 3 kts | 189° |
| 2026-05-07 19:27 | 37.61959 | -122.38259 | 24 ft | 2 kts | 182° |
| 2026-05-07 19:28 | 37.61972 | -122.38259 | 23 ft | 2 kts | 173° |
| 2026-05-07 19:28 | 37.61983 | -122.38261 | 23 ft | 2 kts | 159° |
| 2026-05-07 19:28 | 37.61992 | -122.38267 | 22 ft | 0 kts | 124° |
| 2026-05-07 19:29 | 37.61987 | -122.38258 | 21 ft | 5 kts | 122° |
| 2026-05-07 19:29 | 37.61965 | -122.38202 | 20 ft | 7 kts | 116° |
| 2026-05-07 19:30 | 37.61940 | -122.38139 | 20 ft | 10 kts | 117° |
| 2026-05-07 19:30 | 37.61901 | -122.38044 | 21 ft | 13 kts | 118° |
| 2026-05-07 19:30 | 37.61861 | -122.37952 | 20 ft | 11 kts | 118° |
| 2026-05-07 19:30 | 37.61828 | -122.37866 | 20 ft | 10 kts | 112° |
| 2026-05-07 19:31 | 37.61803 | -122.37786 | 20 ft | 9 kts | 111° |
| 2026-05-07 19:31 | 37.61778 | -122.37709 | 20 ft | 13 kts | 111° |
| 2026-05-07 19:31 | 37.61743 | -122.37589 | 20 ft | 14 kts | 110° |
| 2026-05-07 19:31 | 37.61706 | -122.37479 | 20 ft | 13 kts | 116° |
| 2026-05-07 19:32 | 37.61654 | -122.37355 | 20 ft | 16 kts | 118° |
| 2026-05-07 19:32 | 37.61602 | -122.37232 | 22 ft | 17 kts | 118° |
| 2026-05-07 19:32 | 37.61537 | -122.37078 | 20 ft | 23 kts | 117° |
| 2026-05-07 19:32 | 37.61445 | -122.36890 | 20 ft | 28 kts | 134° |
| 2026-05-07 19:33 | 37.61321 | -122.36677 | 21 ft | 33 kts | 116° |
| 2026-05-07 19:33 | 37.61212 | -122.36415 | 20 ft | 34 kts | 118° |
| 2026-05-07 19:33 | 37.61102 | -122.36150 | 20 ft | 32 kts | 118° |
| 2026-05-07 19:33 | 37.61086 | -122.35912 | 20 ft | 28 kts | 38° |
| 2026-05-07 19:34 | 37.61224 | -122.35962 | 20 ft | 23 kts | 298° |
| 2026-05-07 19:34 | 37.61239 | -122.35997 | 22 ft | 0 kts | 298° |
| 2026-05-07 19:34 | 37.61270 | -122.36071 | 22 ft | 40 kts | 298° |
| 2026-05-07 19:35 | 37.61518 | -122.36652 | 21 ft | 107 kts | 298° |
| 2026-05-07 19:35 | 37.61962 | -122.37682 | 38 ft | 156 kts | 298° |
| 2026-05-07 19:35 | 37.62477 | -122.38864 | 680 ft | 152 kts | 297° |
| 2026-05-07 19:35 | 37.62986 | -122.40035 | 1379 ft | 153 kts | 298° |
| 2026-05-07 19:36 | 37.63517 | -122.41268 | 1823 ft | 170 kts | 298° |
| 2026-05-07 19:36 | 37.64110 | -122.42648 | 2138 ft | 192 kts | 298° |
| 2026-05-07 19:36 | 37.64793 | -122.44229 | 2469 ft | 218 kts | 299° |
| 2026-05-07 19:36 | 37.65552 | -122.45976 | 3036 ft | 234 kts | 299° |
| 2026-05-07 19:37 | 37.66341 | -122.47786 | 3893 ft | 237 kts | 297° |
| 2026-05-07 19:37 | 37.66913 | -122.49773 | 4486 ft | 253 kts | 272° |
| 2026-05-07 19:37 | 37.66460 | -122.51923 | 5140 ft | 262 kts | 235° |
| 2026-05-07 19:37 | 37.65045 | -122.53370 | 5948 ft | 269 kts | 201° |
| 2026-05-07 19:38 | 37.63176 | -122.53557 | 6829 ft | 277 kts | 171° |
| 2026-05-07 19:38 | 37.61336 | -122.52786 | 7671 ft | 282 kts | 159° |
| 2026-05-07 19:38 | 37.59559 | -122.51791 | 8499 ft | 285 kts | 158° |
| 2026-05-07 19:38 | 37.57739 | -122.50770 | 9340 ft | 288 kts | 158° |
| 2026-05-07 19:39 | 37.55901 | -122.49737 | 10175 ft | 291 kts | 158° |
| 2026-05-07 19:39 | 37.53953 | -122.48774 | 10524 ft | 312 kts | 164° |
| 2026-05-07 19:39 | 37.51788 | -122.48014 | 10745 ft | 334 kts | 167° |
| 2026-05-07 19:39 | 37.49429 | -122.47509 | 11032 ft | 351 kts | 180° |
| 2026-05-07 19:40 | 37.46980 | -122.47789 | 11619 ft | 357 kts | 192° |
| 2026-05-07 19:40 | 37.44522 | -122.48365 | 12278 ft | 362 kts | 191° |
| 2026-05-07 19:40 | 37.42024 | -122.48863 | 12954 ft | 366 kts | 189° |
| 2026-05-07 19:40 | 37.39522 | -122.49311 | 13620 ft | 369 kts | 188° |
| 2026-05-07 19:41 | 37.36966 | -122.49750 | 14235 ft | 374 kts | 189° |
| 2026-05-07 19:41 | 37.34372 | -122.50199 | 14815 ft | 378 kts | 188° |
| 2026-05-07 19:41 | 37.31757 | -122.50662 | 15367 ft | 382 kts | 188° |
| 2026-05-07 19:41 | 37.29107 | -122.51145 | 15944 ft | 386 kts | 189° |
| 2026-05-07 19:42 | 37.26433 | -122.51641 | 16510 ft | 391 kts | 189° |
| 2026-05-07 19:42 | 37.23728 | -122.52149 | 17078 ft | 395 kts | 189° |
| 2026-05-07 19:42 | 37.20996 | -122.52661 | 17640 ft | 400 kts | 189° |
| 2026-05-07 19:42 | 37.18228 | -122.53173 | 18211 ft | 404 kts | 189° |
| 2026-05-07 19:43 | 37.15470 | -122.53684 | 18713 ft | 408 kts | 189° |
| 2026-05-07 19:43 | 37.12648 | -122.54206 | 19222 ft | 412 kts | 189° |
| 2026-05-07 19:43 | 37.09799 | -122.54732 | 19727 ft | 415 kts | 188° |
| 2026-05-07 19:43 | 37.06928 | -122.55262 | 20226 ft | 419 kts | 189° |
| 2026-05-07 19:44 | 37.04019 | -122.55603 | 20710 ft | 422 kts | 180° |
| 2026-05-07 19:44 | 37.01081 | -122.55298 | 21200 ft | 426 kts | 169° |
| 2026-05-07 19:44 | 36.98217 | -122.54317 | 21676 ft | 429 kts | 159° |
| 2026-05-07 19:44 | 36.95522 | -122.52686 | 22092 ft | 433 kts | 148° |
| 2026-05-07 19:45 | 36.92963 | -122.50774 | 22547 ft | 435 kts | 149° |
| 2026-05-07 19:45 | 36.90349 | -122.48837 | 22988 ft | 439 kts | 149° |
| 2026-05-07 19:45 | 36.87709 | -122.46898 | 23398 ft | 442 kts | 149° |
| 2026-05-07 19:45 | 36.85051 | -122.44960 | 23851 ft | 444 kts | 149° |
| 2026-05-07 19:46 | 36.82377 | -122.43011 | 24169 ft | 447 kts | 149° |
| 2026-05-07 19:46 | 36.79688 | -122.41045 | 24503 ft | 449 kts | 149° |
| 2026-05-07 19:46 | 36.76986 | -122.39069 | 24842 ft | 452 kts | 149° |
| 2026-05-07 19:46 | 36.74266 | -122.37077 | 25153 ft | 454 kts | 149° |
| 2026-05-07 19:47 | 36.71570 | -122.35101 | 25493 ft | 456 kts | 149° |
| 2026-05-07 19:47 | 36.68829 | -122.33093 | 25824 ft | 459 kts | 149° |
| 2026-05-07 19:47 | 36.66072 | -122.31074 | 26132 ft | 461 kts | 149° |
| 2026-05-07 19:47 | 36.63306 | -122.29053 | 26461 ft | 462 kts | 149° |
| 2026-05-07 19:48 | 36.60521 | -122.27023 | 26721 ft | 466 kts | 149° |
| 2026-05-07 19:48 | 36.57715 | -122.24984 | 27038 ft | 467 kts | 149° |
| 2026-05-07 19:48 | 36.54901 | -122.22940 | 27308 ft | 470 kts | 149° |
| 2026-05-07 19:48 | 36.52106 | -122.20910 | 27557 ft | 472 kts | 149° |
| 2026-05-07 19:49 | 36.49266 | -122.18846 | 27863 ft | 474 kts | 149° |
| 2026-05-07 19:49 | 36.46413 | -122.16775 | 28083 ft | 477 kts | 149° |
| 2026-05-07 19:49 | 36.43545 | -122.14692 | 28352 ft | 478 kts | 149° |
| 2026-05-07 19:49 | 36.40665 | -122.12604 | 28583 ft | 481 kts | 149° |
| 2026-05-07 19:50 | 36.37768 | -122.10507 | 28798 ft | 483 kts | 149° |
| 2026-05-07 19:50 | 36.34867 | -122.08412 | 29043 ft | 484 kts | 149° |
| 2026-05-07 19:50 | 36.31951 | -122.06306 | 29303 ft | 484 kts | 149° |
| 2026-05-07 19:50 | 36.29055 | -122.04212 | 29718 ft | 481 kts | 149° |
| 2026-05-07 19:51 | 36.26207 | -122.02151 | 30025 ft | 481 kts | 149° |
| 2026-05-07 19:51 | 36.23313 | -122.00062 | 30321 ft | 481 kts | 149° |
| 2026-05-07 19:51 | 36.20427 | -121.97985 | 30620 ft | 480 kts | 149° |
| 2026-05-07 19:51 | 36.17539 | -121.95913 | 30871 ft | 480 kts | 149° |
| 2026-05-07 19:52 | 36.14654 | -121.93846 | 31179 ft | 478 kts | 149° |
| 2026-05-07 19:52 | 36.11780 | -121.91786 | 31456 ft | 478 kts | 149° |
| 2026-05-07 19:52 | 36.08902 | -121.89724 | 31727 ft | 477 kts | 149° |
| 2026-05-07 19:52 | 36.06075 | -121.87697 | 32028 ft | 476 kts | 150° |
| 2026-05-07 19:53 | 36.03216 | -121.85639 | 32293 ft | 476 kts | 148° |
| 2026-05-07 19:53 | 36.00528 | -121.83265 | 32594 ft | 474 kts | 139° |
| 2026-05-07 19:53 | 35.98186 | -121.80408 | 32871 ft | 473 kts | 129° |
| 2026-05-07 19:53 | 35.96159 | -121.77219 | 33179 ft | 471 kts | 127° |
| 2026-05-07 19:54 | 35.94162 | -121.74018 | 33487 ft | 470 kts | 127° |
| 2026-05-07 19:54 | 35.92164 | -121.70826 | 33763 ft | 470 kts | 127° |
| 2026-05-07 19:54 | 35.90161 | -121.67638 | 34048 ft | 470 kts | 127° |
| 2026-05-07 19:54 | 35.88158 | -121.64456 | 34305 ft | 469 kts | 127° |
| 2026-05-07 19:55 | 35.86182 | -121.61323 | 34543 ft | 469 kts | 127° |
| 2026-05-07 19:55 | 35.84183 | -121.58155 | 34798 ft | 468 kts | 127° |
| 2026-05-07 19:55 | 35.82184 | -121.54985 | 35026 ft | 468 kts | 127° |
| 2026-05-07 19:55 | 35.80187 | -121.51818 | 35223 ft | 469 kts | 127° |
| 2026-05-07 19:56 | 35.78186 | -121.48647 | 35450 ft | 468 kts | 127° |
| 2026-05-07 19:56 | 35.76188 | -121.45492 | 35675 ft | 467 kts | 127° |
| 2026-05-07 19:56 | 35.74190 | -121.42337 | 35886 ft | 467 kts | 127° |
| 2026-05-07 19:56 | 35.72192 | -121.39183 | 36091 ft | 467 kts | 127° |
| 2026-05-07 19:57 | 35.70224 | -121.36075 | 36284 ft | 467 kts | 127° |
| 2026-05-07 19:57 | 35.68228 | -121.32929 | 36476 ft | 466 kts | 127° |
| 2026-05-07 19:57 | 35.66231 | -121.29788 | 36664 ft | 466 kts | 127° |
| 2026-05-07 19:57 | 35.64229 | -121.26641 | 36804 ft | 468 kts | 127° |
| 2026-05-07 19:58 | 35.62225 | -121.23494 | 36966 ft | 468 kts | 127° |
| 2026-05-07 19:58 | 35.60218 | -121.20348 | 37112 ft | 468 kts | 127° |
| 2026-05-07 19:58 | 35.56194 | -121.14043 | 37133 ft | 469 kts | 127° |
| 2026-05-07 19:59 | 35.52161 | -121.07745 | 37136 ft | 469 kts | 127° |
| 2026-05-07 19:59 | 35.48257 | -121.01378 | 37133 ft | 471 kts | 124° |
| 2026-05-07 20:00 | 35.44515 | -120.94781 | 37147 ft | 471 kts | 123° |
| 2026-05-07 20:00 | 35.40794 | -120.88198 | 37118 ft | 469 kts | 124° |
| 2026-05-07 20:01 | 35.37017 | -120.81674 | 37098 ft | 469 kts | 124° |
| 2026-05-07 20:01 | 35.33206 | -120.75174 | 37086 ft | 470 kts | 124° |
| 2026-05-07 20:02 | 35.29414 | -120.68710 | 37079 ft | 470 kts | 124° |
| 2026-05-07 20:02 | 35.25604 | -120.62199 | 37083 ft | 471 kts | 124° |
| 2026-05-07 20:03 | 35.21785 | -120.55681 | 37090 ft | 471 kts | 124° |
| 2026-05-07 20:03 | 35.17961 | -120.49161 | 37086 ft | 472 kts | 124° |
| 2026-05-07 20:04 | 35.14152 | -120.42676 | 37101 ft | 473 kts | 124° |
| 2026-05-07 20:04 | 35.10306 | -120.36153 | 37112 ft | 473 kts | 124° |
| 2026-05-07 20:05 | 35.06453 | -120.29641 | 37112 ft | 473 kts | 124° |
| 2026-05-07 20:05 | 35.02600 | -120.23135 | 37103 ft | 473 kts | 124° |
| 2026-05-07 20:06 | 34.98775 | -120.16676 | 37097 ft | 473 kts | 124° |
| 2026-05-07 20:06 | 34.94917 | -120.10176 | 37114 ft | 473 kts | 124° |
| 2026-05-07 20:07 | 34.91058 | -120.03681 | 37099 ft | 473 kts | 124° |
| 2026-05-07 20:07 | 34.87194 | -119.97202 | 37092 ft | 472 kts | 124° |
| 2026-05-07 20:08 | 34.83350 | -119.90783 | 37084 ft | 472 kts | 124° |
| 2026-05-07 20:08 | 34.79479 | -119.84321 | 37085 ft | 472 kts | 124° |
| 2026-05-07 20:09 | 34.75617 | -119.77857 | 37085 ft | 472 kts | 124° |
| 2026-05-07 20:10 | 34.69816 | -119.68183 | 37082 ft | 472 kts | 124° |
| 2026-05-07 20:10 | 34.65963 | -119.61788 | 37079 ft | 472 kts | 124° |
| 2026-05-07 20:11 | 34.62084 | -119.55355 | 37087 ft | 472 kts | 124° |
| 2026-05-07 20:11 | 34.58197 | -119.48934 | 37105 ft | 471 kts | 124° |
| 2026-05-07 20:12 | 34.54318 | -119.42529 | 37103 ft | 471 kts | 124° |
| 2026-05-07 20:12 | 34.50470 | -119.36181 | 37102 ft | 470 kts | 124° |
| 2026-05-07 20:13 | 34.46593 | -119.29801 | 37100 ft | 470 kts | 124° |
| 2026-05-07 20:13 | 34.42715 | -119.23423 | 37103 ft | 470 kts | 124° |
| 2026-05-07 20:14 | 34.38829 | -119.17053 | 37098 ft | 469 kts | 124° |
| 2026-05-07 20:14 | 34.34950 | -119.10705 | 37096 ft | 469 kts | 124° |
| 2026-05-07 20:15 | 34.31099 | -119.04408 | 37095 ft | 469 kts | 124° |
| 2026-05-07 20:15 | 34.27221 | -118.98074 | 37081 ft | 469 kts | 124° |
| 2026-05-07 20:16 | 34.23339 | -118.91734 | 37099 ft | 469 kts | 124° |
| 2026-05-07 20:16 | 34.19450 | -118.85416 | 37080 ft | 468 kts | 124° |
| 2026-05-07 20:17 | 34.15561 | -118.79108 | 37067 ft | 468 kts | 124° |
| 2026-05-07 20:17 | 34.11700 | -118.72850 | 37054 ft | 468 kts | 124° |
| 2026-05-07 20:18 | 34.07797 | -118.66549 | 37070 ft | 469 kts | 124° |
| 2026-05-07 20:18 | 34.03896 | -118.60257 | 37095 ft | 468 kts | 124° |
| 2026-05-07 20:19 | 34.00003 | -118.53973 | 37100 ft | 468 kts | 124° |
| 2026-05-07 20:19 | 33.96132 | -118.47739 | 37099 ft | 468 kts | 124° |
| 2026-05-07 20:20 | 33.92032 | -118.41635 | 37084 ft | 471 kts | 133° |
| 2026-05-07 20:20 | 33.87393 | -118.36047 | 37097 ft | 472 kts | 133° |
| 2026-05-07 20:21 | 33.82749 | -118.30467 | 37087 ft | 471 kts | 133° |
| 2026-05-07 20:21 | 33.78116 | -118.24894 | 37084 ft | 472 kts | 133° |
| 2026-05-07 20:21 | 33.75822 | -118.22136 | 36874 ft | 473 kts | 133° |
| 2026-05-07 20:22 | 33.73498 | -118.19346 | 36559 ft | 472 kts | 133° |
| 2026-05-07 20:22 | 33.71173 | -118.16555 | 35685 ft | 474 kts | 132° |
| 2026-05-07 20:22 | 33.68835 | -118.13748 | 34796 ft | 475 kts | 132° |
| 2026-05-07 20:22 | 33.66502 | -118.10950 | 34046 ft | 472 kts | 132° |
| 2026-05-07 20:23 | 33.64184 | -118.08178 | 33097 ft | 471 kts | 132° |
| 2026-05-07 20:23 | 33.61856 | -118.05399 | 31971 ft | 474 kts | 132° |
| 2026-05-07 20:23 | 33.59514 | -118.02600 | 30797 ft | 478 kts | 133° |
| 2026-05-07 20:23 | 33.57146 | -117.99774 | 29506 ft | 482 kts | 133° |
| 2026-05-07 20:24 | 33.54763 | -117.96932 | 28255 ft | 483 kts | 133° |
| 2026-05-07 20:24 | 33.52409 | -117.94128 | 27054 ft | 484 kts | 133° |
| 2026-05-07 20:24 | 33.50026 | -117.91294 | 26172 ft | 479 kts | 133° |
| 2026-05-07 20:24 | 33.47681 | -117.88510 | 25394 ft | 472 kts | 133° |
| 2026-05-07 20:25 | 33.45363 | -117.85754 | 24579 ft | 467 kts | 133° |
| 2026-05-07 20:25 | 33.43067 | -117.83022 | 23795 ft | 464 kts | 133° |
| 2026-05-07 20:25 | 33.40787 | -117.80311 | 22932 ft | 460 kts | 133° |
| 2026-05-07 20:25 | 33.38531 | -117.77635 | 22216 ft | 453 kts | 133° |
| 2026-05-07 20:26 | 33.36303 | -117.74995 | 21501 ft | 448 kts | 133° |
| 2026-05-07 20:26 | 33.34128 | -117.72426 | 20818 ft | 443 kts | 133° |
| 2026-05-07 20:26 | 33.31947 | -117.69854 | 20150 ft | 438 kts | 133° |
| 2026-05-07 20:26 | 33.29786 | -117.67307 | 19507 ft | 434 kts | 133° |
| 2026-05-07 20:27 | 33.27648 | -117.64785 | 18881 ft | 430 kts | 133° |
| 2026-05-07 20:27 | 33.25537 | -117.62291 | 18283 ft | 425 kts | 133° |
| 2026-05-07 20:27 | 33.23446 | -117.59819 | 17650 ft | 420 kts | 133° |
| 2026-05-07 20:27 | 33.21380 | -117.57382 | 17056 ft | 415 kts | 133° |
| 2026-05-07 20:28 | 33.19324 | -117.54959 | 16380 ft | 414 kts | 133° |
| 2026-05-07 20:28 | 33.17295 | -117.52573 | 15947 ft | 406 kts | 133° |
| 2026-05-07 20:28 | 33.15321 | -117.50252 | 15421 ft | 401 kts | 133° |
| 2026-05-07 20:28 | 33.13268 | -117.48014 | 14863 ft | 399 kts | 139° |
| 2026-05-07 20:29 | 33.11000 | -117.46058 | 13928 ft | 407 kts | 142° |
| 2026-05-07 20:29 | 33.08685 | -117.44128 | 13488 ft | 400 kts | 143° |
| 2026-05-07 20:29 | 33.06448 | -117.42282 | 13355 ft | 383 kts | 143° |
| 2026-05-07 20:29 | 33.04301 | -117.40513 | 13230 ft | 367 kts | 142° |
| 2026-05-07 20:30 | 33.02247 | -117.38809 | 13103 ft | 353 kts | 142° |
| 2026-05-07 20:30 | 33.00275 | -117.37165 | 12977 ft | 340 kts | 142° |
| 2026-05-07 20:30 | 32.98375 | -117.35573 | 12852 ft | 328 kts | 142° |
| 2026-05-07 20:30 | 32.96569 | -117.34054 | 12722 ft | 317 kts | 142° |
| 2026-05-07 20:31 | 32.94797 | -117.32567 | 12601 ft | 307 kts | 142° |
| 2026-05-07 20:31 | 32.93081 | -117.31130 | 12476 ft | 297 kts | 142° |
| 2026-05-07 20:31 | 32.91505 | -117.29808 | 12330 ft | 289 kts | 142° |
| 2026-05-07 20:31 | 32.89871 | -117.28440 | 12063 ft | 286 kts | 142° |
| 2026-05-07 20:32 | 32.88249 | -117.27086 | 11758 ft | 284 kts | 142° |
| 2026-05-07 20:32 | 32.86634 | -117.25743 | 11447 ft | 283 kts | 142° |
| 2026-05-07 20:32 | 32.85026 | -117.24405 | 11130 ft | 281 kts | 142° |
| 2026-05-07 20:32 | 32.83426 | -117.23077 | 10826 ft | 280 kts | 143° |
| 2026-05-07 20:33 | 32.81955 | -117.21596 | 10516 ft | 275 kts | 128° |
| 2026-05-07 20:33 | 32.80925 | -117.19711 | 10192 ft | 271 kts | 111° |
| 2026-05-07 20:33 | 32.80366 | -117.17620 | 9832 ft | 269 kts | 103° |
| 2026-05-07 20:33 | 32.79896 | -117.15477 | 9460 ft | 266 kts | 103° |
| 2026-05-07 20:34 | 32.79427 | -117.13363 | 8856 ft | 264 kts | 103° |
| 2026-05-07 20:34 | 32.78957 | -117.11253 | 8207 ft | 264 kts | 102° |
| 2026-05-07 20:34 | 32.78489 | -117.09142 | 7542 ft | 265 kts | 103° |
| 2026-05-07 20:34 | 32.78017 | -117.07026 | 6870 ft | 266 kts | 103° |
| 2026-05-07 20:35 | 32.77322 | -117.04982 | 6211 ft | 267 kts | 112° |
| 2026-05-07 20:35 | 32.76560 | -117.03041 | 5985 ft | 249 kts | 112° |
| 2026-05-07 20:35 | 32.75850 | -117.01233 | 5969 ft | 242 kts | 113° |
| 2026-05-07 20:35 | 32.75149 | -116.99423 | 5921 ft | 243 kts | 112° |
| 2026-05-07 20:36 | 32.74488 | -116.97557 | 5544 ft | 243 kts | 110° |
| 2026-05-07 20:36 | 32.73581 | -116.95898 | 5308 ft | 242 kts | 139° |
| 2026-05-07 20:36 | 32.72116 | -116.94942 | 5081 ft | 241 kts | 167° |
| 2026-05-07 20:36 | 32.70464 | -116.94831 | 4863 ft | 238 kts | 193° |
| 2026-05-07 20:37 | 32.68955 | -116.95551 | 4642 ft | 232 kts | 219° |
| 2026-05-07 20:37 | 32.67867 | -116.96912 | 4430 ft | 228 kts | 241° |
| 2026-05-07 20:37 | 32.67355 | -116.98651 | 4212 ft | 223 kts | 266° |
| 2026-05-07 20:37 | 32.67472 | -117.00434 | 4013 ft | 219 kts | 289° |
| 2026-05-07 20:38 | 32.68178 | -117.02013 | 3807 ft | 217 kts | 312° |
| 2026-05-07 20:38 | 32.69191 | -117.03315 | 3603 ft | 209 kts | 313° |
| 2026-05-07 20:38 | 32.69900 | -117.04727 | 3403 ft | 195 kts | 289° |
| 2026-05-07 20:38 | 32.70288 | -117.06246 | 2966 ft | 189 kts | 287° |
| 2026-05-07 20:39 | 32.70642 | -117.07705 | 2592 ft | 179 kts | 286° |
| 2026-05-07 20:39 | 32.70969 | -117.09068 | 2268 ft | 165 kts | 285° |
| 2026-05-07 20:39 | 32.71273 | -117.10333 | 1951 ft | 153 kts | 284° |
| 2026-05-07 20:39 | 32.71558 | -117.11510 | 1659 ft | 144 kts | 285° |
| 2026-05-07 20:40 | 32.71828 | -117.12624 | 1385 ft | 141 kts | 285° |
| 2026-05-07 20:40 | 32.72097 | -117.13742 | 1101 ft | 140 kts | 283° |
| 2026-05-07 20:40 | 32.72368 | -117.14839 | 777 ft | 138 kts | 283° |
| 2026-05-07 20:40 | 32.72635 | -117.15939 | 549 ft | 139 kts | 281° |
| 2026-05-07 20:41 | 32.72904 | -117.17041 | 293 ft | 138 kts | 280° |
| 2026-05-07 20:41 | 32.73154 | -117.18117 | 96 ft | 132 kts | 281° |
| 2026-05-07 20:41 | 32.73380 | -117.19158 | 27 ft | 123 kts | 295° |
| 2026-05-07 20:41 | 32.73530 | -117.19684 | 27 ft | 16 kts | 279° |
| 2026-05-07 20:42 | 32.73530 | -117.19781 | 25 ft | 7 kts | 257° |
| 2026-05-07 20:42 | 32.73510 | -117.19842 | 24 ft | 10 kts | 248° |
| 2026-05-07 20:42 | 32.73505 | -117.19856 | 24 ft | 1 kts | 248° |
| 2026-05-07 20:42 | 32.73503 | -117.19865 | 25 ft | 1 kts | 248° |
| 2026-05-07 20:43 | 32.73498 | -117.19878 | 24 ft | 2 kts | 248° |
| 2026-05-07 20:43 | 32.73494 | -117.19891 | 23 ft | 2 kts | 248° |
| 2026-05-07 20:43 | 32.73490 | -117.19902 | 25 ft | 1 kts | 251° |
| 2026-05-07 20:43 | 32.73489 | -117.19911 | 23 ft | 1 kts | 258° |
| 2026-05-07 20:44 | 32.73490 | -117.19938 | 23 ft | 6 kts | 276° |
| 2026-05-07 20:44 | 32.73501 | -117.19994 | 23 ft | 8 kts | 286° |
| 2026-05-07 20:44 | 32.73516 | -117.20067 | 23 ft | 10 kts | 284° |
| 2026-05-07 20:44 | 32.73536 | -117.20155 | 25 ft | 11 kts | 285° |
| 2026-05-07 20:45 | 32.73549 | -117.20240 | 25 ft | 10 kts | 276° |
| 2026-05-07 20:45 | 32.73556 | -117.20312 | 23 ft | 5 kts | 276° |
| 2026-05-07 20:45 | 32.73552 | -117.20341 | 23 ft | 2 kts | 240° |
| 2026-05-07 20:45 | 32.73542 | -117.20350 | 23 ft | 1 kts | 212° |
| 2026-05-07 20:46 | 32.73536 | -117.20353 | 23 ft | 1 kts | 206° |
| 2026-05-07 20:46 | 32.73514 | -117.20361 | 23 ft | 5 kts | 197° |
| 2026-05-07 20:46 | 32.73481 | -117.20372 | 23 ft | 4 kts | 195° |
| 2026-05-07 20:46 | 32.73471 | -117.20375 | 23 ft | 0 kts | 195° |